sensor_id;sensor_type;location;lat;lon;timestamp;pressure;altitude;pressure_sealevel;temperature;humidity
19594;BME280;9944;48.240;16.478;2023-12-28T00:01:33;100201.09;;;3.73;76.91
19594;BME280;9944;48.240;16.478;2023-12-28T00:05:38;100194.94;;;3.71;77.32
19594;BME280;9944;48.240;16.478;2023-12-28T00:09:41;100210.59;;;3.71;77.47
19594;BME280;9944;48.240;16.478;2023-12-28T00:13:44;100212.44;;;3.73;77.92
19594;BME280;9944;48.240;16.478;2023-12-28T00:17:47;100206.34;;;3.74;77.93
19594;BME280;9944;48.240;16.478;2023-12-28T00:21:52;100196.78;;;3.73;77.79
19594;BME280;9944;48.240;16.478;2023-12-28T00:25:56;100205.34;;;3.69;77.70
19594;BME280;9944;48.240;16.478;2023-12-28T00:29:58;100214.78;;;3.65;78.10
19594;BME280;9944;48.240;16.478;2023-12-28T00:34:02;100212.13;;;3.62;78.19
19594;BME280;9944;48.240;16.478;2023-12-28T00:38:07;100225.16;;;3.62;78.31
19594;BME280;9944;48.240;16.478;2023-12-28T00:42:10;100221.59;;;3.60;78.26
19594;BME280;9944;48.240;16.478;2023-12-28T00:46:13;100209.41;;;3.59;78.34
19594;BME280;9944;48.240;16.478;2023-12-28T00:50:17;100211.09;;;3.57;78.32
19594;BME280;9944;48.240;16.478;2023-12-28T00:54:21;100217.03;;;3.53;78.29
19594;BME280;9944;48.240;16.478;2023-12-28T00:58:25;100216.09;;;3.51;78.50
19594;BME280;9944;48.240;16.478;2023-12-28T01:02:28;100215.28;;;3.52;78.85
19594;BME280;9944;48.240;16.478;2023-12-28T01:06:31;100210.06;;;3.52;79.07
19594;BME280;9944;48.240;16.478;2023-12-28T01:10:36;100208.31;;;3.53;79.19
19594;BME280;9944;48.240;16.478;2023-12-28T01:14:39;100203.81;;;3.47;78.92
19594;BME280;9944;48.240;16.478;2023-12-28T01:18:42;100208.03;;;3.43;79.01
19594;BME280;9944;48.240;16.478;2023-12-28T01:22:46;100212.22;;;3.38;79.08
19594;BME280;9944;48.240;16.478;2023-12-28T01:26:52;100212.06;;;3.34;78.92
19594;BME280;9944;48.240;16.478;2023-12-28T01:30:56;100217.19;;;3.31;78.78
19594;BME280;9944;48.240;16.478;2023-12-28T01:35:00;100196.41;;;3.34;78.91
19594;BME280;9944;48.240;16.478;2023-12-28T01:39:03;100197.28;;;3.34;79.10
19594;BME280;9944;48.240;16.478;2023-12-28T01:43:08;100202.56;;;3.36;79.47
19594;BME280;9944;48.240;16.478;2023-12-28T01:47:11;100193.00;;;3.36;79.57
19594;BME280;9944;48.240;16.478;2023-12-28T01:51:14;100201.81;;;3.40;79.77
19594;BME280;9944;48.240;16.478;2023-12-28T01:55:19;100193.31;;;3.45;80.28
19594;BME280;9944;48.240;16.478;2023-12-28T01:59:24;100189.06;;;3.49;80.39
19594;BME280;9944;48.240;16.478;2023-12-28T02:03:27;100198.75;;;3.53;80.51
19594;BME280;9944;48.240;16.478;2023-12-28T02:07:32;100187.53;;;3.56;80.53
19594;BME280;9944;48.240;16.478;2023-12-28T02:11:36;100178.03;;;3.58;80.44
19594;BME280;9944;48.240;16.478;2023-12-28T02:15:40;100180.69;;;3.59;80.79
19594;BME280;9944;48.240;16.478;2023-12-28T02:19:47;100177.41;;;3.66;80.77
19594;BME280;9944;48.240;16.478;2023-12-28T02:23:52;100178.28;;;3.67;80.63
19594;BME280;9944;48.240;16.478;2023-12-28T02:27:57;100169.59;;;3.66;80.57
19594;BME280;9944;48.240;16.478;2023-12-28T02:32:03;100153.06;;;3.68;80.71
19594;BME280;9944;48.240;16.478;2023-12-28T02:36:11;100164.47;;;3.70;80.89
19594;BME280;9944;48.240;16.478;2023-12-28T02:40:15;100153.25;;;3.74;81.31
19594;BME280;9944;48.240;16.478;2023-12-28T02:44:20;100147.28;;;3.78;80.95
19594;BME280;9944;48.240;16.478;2023-12-28T02:48:24;100142.91;;;3.77;80.94
19594;BME280;9944;48.240;16.478;2023-12-28T02:52:28;100153.25;;;3.74;81.40
19594;BME280;9944;48.240;16.478;2023-12-28T02:56:32;100155.88;;;3.74;81.32
19594;BME280;9944;48.240;16.478;2023-12-28T03:00:38;100161.19;;;3.77;81.45
19594;BME280;9944;48.240;16.478;2023-12-28T03:04:42;100157.81;;;3.81;81.86
19594;BME280;9944;48.240;16.478;2023-12-28T03:08:45;100158.78;;;3.84;81.71
19594;BME280;9944;48.240;16.478;2023-12-28T03:12:48;100158.09;;;3.90;82.22
19594;BME280;9944;48.240;16.478;2023-12-28T03:16:53;100175.75;;;3.97;82.30
19594;BME280;9944;48.240;16.478;2023-12-28T03:20:56;100181.03;;;4.00;82.31
19594;BME280;9944;48.240;16.478;2023-12-28T03:24:59;100175.81;;;4.00;82.24
19594;BME280;9944;48.240;16.478;2023-12-28T03:29:02;100177.50;;;3.98;81.99
19594;BME280;9944;48.240;16.478;2023-12-28T03:33:08;100177.59;;;4.01;82.19
19594;BME280;9944;48.240;16.478;2023-12-28T03:37:11;100181.91;;;3.99;82.24
19594;BME280;9944;48.240;16.478;2023-12-28T03:41:18;100192.34;;;3.99;82.48
19594;BME280;9944;48.240;16.478;2023-12-28T03:45:21;100177.59;;;4.01;82.78
19594;BME280;9944;48.240;16.478;2023-12-28T03:49:26;100178.47;;;4.02;82.66
19594;BME280;9944;48.240;16.478;2023-12-28T03:53:29;100174.16;;;4.02;83.08
19594;BME280;9944;48.240;16.478;2023-12-28T03:57:33;100172.53;;;4.06;83.07
19594;BME280;9944;48.240;16.478;2023-12-28T04:01:36;100168.19;;;4.07;82.93
19594;BME280;9944;48.240;16.478;2023-12-28T04:05:43;100169.97;;;4.09;83.17
19594;BME280;9944;48.240;16.478;2023-12-28T04:09:46;100174.31;;;4.09;83.10
19594;BME280;9944;48.240;16.478;2023-12-28T04:13:50;100167.38;;;4.09;83.26
19594;BME280;9944;48.240;16.478;2023-12-28T04:17:53;100186.56;;;4.10;83.16
19594;BME280;9944;48.240;16.478;2023-12-28T04:21:58;100194.34;;;4.08;83.26
19594;BME280;9944;48.240;16.478;2023-12-28T04:26:01;100203.88;;;4.06;83.21
19594;BME280;9944;48.240;16.478;2023-12-28T04:30:06;100190.81;;;4.06;83.46
19594;BME280;9944;48.240;16.478;2023-12-28T04:34:09;100198.69;;;4.08;83.55
19594;BME280;9944;48.240;16.478;2023-12-28T04:38:15;100210.75;;;4.02;83.31
19594;BME280;9944;48.240;16.478;2023-12-28T04:42:19;100235.06;;;4.01;83.60
19594;BME280;9944;48.240;16.478;2023-12-28T04:46:23;100228.06;;;4.00;83.86
19594;BME280;9944;48.240;16.478;2023-12-28T04:50:26;100219.44;;;4.03;83.94
19594;BME280;9944;48.240;16.478;2023-12-28T04:54:30;100239.41;;;4.01;83.96
19594;BME280;9944;48.240;16.478;2023-12-28T04:58:34;100235.16;;;4.05;84.11
19594;BME280;9944;48.240;16.478;2023-12-28T05:02:37;100239.41;;;4.01;83.80
19594;BME280;9944;48.240;16.478;2023-12-28T05:06:40;100242.09;;;4.02;84.03
19594;BME280;9944;48.240;16.478;2023-12-28T05:10:45;100244.69;;;4.02;84.21
19594;BME280;9944;48.240;16.478;2023-12-28T05:14:48;100256.91;;;4.03;84.28
19594;BME280;9944;48.240;16.478;2023-12-28T05:18:51;100250.84;;;4.05;84.27
19594;BME280;9944;48.240;16.478;2023-12-28T05:22:54;100249.22;;;4.08;84.41
19594;BME280;9944;48.240;16.478;2023-12-28T05:26:59;100244.13;;;4.13;84.37
19594;BME280;9944;48.240;16.478;2023-12-28T05:31:02;100249.25;;;4.10;84.25
19594;BME280;9944;48.240;16.478;2023-12-28T05:35:06;100258.69;;;4.05;84.01
19594;BME280;9944;48.240;16.478;2023-12-28T05:39:09;100237.78;;;4.05;84.23
19594;BME280;9944;48.240;16.478;2023-12-28T05:43:16;100240.41;;;4.05;84.39
19594;BME280;9944;48.240;16.478;2023-12-28T05:47:19;100258.72;;;4.06;84.19
19594;BME280;9944;48.240;16.478;2023-12-28T05:51:23;100239.31;;;3.98;84.65
19594;BME280;9944;48.240;16.478;2023-12-28T05:55:26;100252.44;;;3.99;84.35
19594;BME280;9944;48.240;16.478;2023-12-28T05:59:31;100254.28;;;4.03;84.75
19594;BME280;9944;48.240;16.478;2023-12-28T06:03:34;100263.03;;;4.06;84.83
19594;BME280;9944;48.240;16.478;2023-12-28T06:07:37;100255.34;;;4.10;84.38
19594;BME280;9944;48.240;16.478;2023-12-28T06:11:40;100268.28;;;4.06;84.41
19594;BME280;9944;48.240;16.478;2023-12-28T06:15:45;100279.63;;;4.06;84.14
19594;BME280;9944;48.240;16.478;2023-12-28T06:19:49;100256.84;;;4.02;84.07
19594;BME280;9944;48.240;16.478;2023-12-28T06:23:53;100253.41;;;4.03;84.56
19594;BME280;9944;48.240;16.478;2023-12-28T06:27:56;100259.59;;;4.07;84.88
19594;BME280;9944;48.240;16.478;2023-12-28T06:32:02;100266.63;;;4.08;84.74
19594;BME280;9944;48.240;16.478;2023-12-28T06:36:06;100264.13;;;4.12;84.76
19594;BME280;9944;48.240;16.478;2023-12-28T06:40:10;100273.69;;;4.12;84.63
19594;BME280;9944;48.240;16.478;2023-12-28T06:44:13;100278.91;;;4.12;84.59
19594;BME280;9944;48.240;16.478;2023-12-28T06:48:18;100269.34;;;4.12;84.42
19594;BME280;9944;48.240;16.478;2023-12-28T06:52:22;100272.78;;;4.10;84.50
19594;BME280;9944;48.240;16.478;2023-12-28T06:56:25;100275.50;;;4.14;84.64
19594;BME280;9944;48.240;16.478;2023-12-28T07:00:28;100277.34;;;4.17;84.89
19594;BME280;9944;48.240;16.478;2023-12-28T07:04:33;100291.38;;;4.20;84.61
19594;BME280;9944;48.240;16.478;2023-12-28T07:08:36;100282.72;;;4.21;84.93
19594;BME280;9944;48.240;16.478;2023-12-28T07:12:39;100289.63;;;4.21;84.88
19594;BME280;9944;48.240;16.478;2023-12-28T07:16:43;100300.19;;;4.24;84.76
19594;BME280;9944;48.240;16.478;2023-12-28T07:20:48;100298.50;;;4.26;84.65
19594;BME280;9944;48.240;16.478;2023-12-28T07:24:52;100292.50;;;4.29;84.34
19594;BME280;9944;48.240;16.478;2023-12-28T07:28:55;100297.78;;;4.30;84.17
19594;BME280;9944;48.240;16.478;2023-12-28T07:32:58;100289.75;;;4.24;83.75
19594;BME280;9944;48.240;16.478;2023-12-28T07:37:03;100304.59;;;4.25;83.79
19594;BME280;9944;48.240;16.478;2023-12-28T07:41:07;100304.66;;;4.28;84.20
19594;BME280;9944;48.240;16.478;2023-12-28T07:45:10;100296.91;;;4.31;84.03
19594;BME280;9944;48.240;16.478;2023-12-28T07:49:13;100309.06;;;4.29;83.64
19594;BME280;9944;48.240;16.478;2023-12-28T07:53:18;100295.06;;;4.27;83.74
19594;BME280;9944;48.240;16.478;2023-12-28T07:57:21;100305.38;;;4.22;83.36
19594;BME280;9944;48.240;16.478;2023-12-28T08:01:24;100307.09;;;4.22;83.80
19594;BME280;9944;48.240;16.478;2023-12-28T08:05:27;100298.41;;;4.23;83.85
19594;BME280;9944;48.240;16.478;2023-12-28T08:09:32;100294.50;;;4.37;84.45
19594;BME280;9944;48.240;16.478;2023-12-28T08:13:36;100290.88;;;4.64;85.37
19594;BME280;9944;48.240;16.478;2023-12-28T08:17:40;100302.28;;;4.66;84.07
19594;BME280;9944;48.240;16.478;2023-12-28T08:21:43;100305.56;;;4.59;83.34
19594;BME280;9944;48.240;16.478;2023-12-28T08:25:48;100316.69;;;4.52;83.18
19594;BME280;9944;48.240;16.478;2023-12-28T08:29:51;100314.88;;;4.49;83.15
19594;BME280;9944;48.240;16.478;2023-12-28T08:33:54;100327.97;;;4.49;83.24
19594;BME280;9944;48.240;16.478;2023-12-28T08:37:58;100322.94;;;4.57;83.08
19594;BME280;9944;48.240;16.478;2023-12-28T08:42:03;100331.66;;;4.57;82.69
19594;BME280;9944;48.240;16.478;2023-12-28T08:46:08;100336.09;;;4.60;82.56
19594;BME280;9944;48.240;16.478;2023-12-28T08:50:11;100333.50;;;4.60;82.35
19594;BME280;9944;48.240;16.478;2023-12-28T08:54:14;100333.50;;;4.60;82.40
19594;BME280;9944;48.240;16.478;2023-12-28T08:58:19;100329.09;;;4.59;82.01
19594;BME280;9944;48.240;16.478;2023-12-28T09:02:22;100345.59;;;4.56;81.88
19594;BME280;9944;48.240;16.478;2023-12-28T09:06:25;100344.78;;;4.59;81.93
19594;BME280;9944;48.240;16.478;2023-12-28T09:10:29;100358.78;;;4.61;81.58
19594;BME280;9944;48.240;16.478;2023-12-28T09:14:33;100351.69;;;4.57;81.48
19594;BME280;9944;48.240;16.478;2023-12-28T09:18:37;100349.91;;;4.56;81.60
19594;BME280;9944;48.240;16.478;2023-12-28T09:22:41;100354.41;;;4.60;81.88
19594;BME280;9944;48.240;16.478;2023-12-28T09:26:44;100354.50;;;4.63;81.99
19594;BME280;9944;48.240;16.478;2023-12-28T09:30:49;100345.94;;;4.69;81.88
19594;BME280;9944;48.240;16.478;2023-12-28T09:34:52;100334.66;;;4.71;81.52
19594;BME280;9944;48.240;16.478;2023-12-28T09:38:56;100335.44;;;4.67;81.28
19594;BME280;9944;48.240;16.478;2023-12-28T09:43:05;100334.56;;;4.68;81.14
19594;BME280;9944;48.240;16.478;2023-12-28T09:47:14;100330.25;;;4.69;81.03
19594;BME280;9944;48.240;16.478;2023-12-28T09:51:18;100330.31;;;4.70;81.34
19594;BME280;9944;48.240;16.478;2023-12-28T09:55:22;100321.69;;;4.74;81.33
19594;BME280;9944;48.240;16.478;2023-12-28T09:59:26;100320.91;;;4.78;81.47
19594;BME280;9944;48.240;16.478;2023-12-28T10:03:31;100314.91;;;4.81;81.11
19594;BME280;9944;48.240;16.478;2023-12-28T10:07:41;100308.94;;;4.87;81.20
19594;BME280;9944;48.240;16.478;2023-12-28T10:11:47;100300.28;;;4.88;81.09
19594;BME280;9944;48.240;16.478;2023-12-28T10:15:50;100289.81;;;4.88;80.95
19594;BME280;9944;48.240;16.478;2023-12-28T10:19:55;100283.81;;;4.92;81.17
19594;BME280;9944;48.240;16.478;2023-12-28T10:24:05;100291.75;;;4.95;81.06
19594;BME280;9944;48.240;16.478;2023-12-28T10:28:09;100280.47;;;4.97;80.94
19594;BME280;9944;48.240;16.478;2023-12-28T10:32:14;100270.09;;;5.01;80.64
19594;BME280;9944;48.240;16.478;2023-12-28T10:36:19;100277.16;;;5.03;80.43
19594;BME280;9944;48.240;16.478;2023-12-28T10:40:26;100266.69;;;5.05;80.53
19594;BME280;9944;48.240;16.478;2023-12-28T10:44:31;100272.84;;;5.05;80.06
19594;BME280;9944;48.240;16.478;2023-12-28T10:48:38;100270.97;;;5.01;79.96
19594;BME280;9944;48.240;16.478;2023-12-28T10:52:47;100274.53;;;5.03;79.83
19594;BME280;9944;48.240;16.478;2023-12-28T10:56:59;100268.34;;;5.01;79.72
19594;BME280;9944;48.240;16.478;2023-12-28T11:01:07;100269.31;;;5.03;79.73
19594;BME280;9944;48.240;16.478;2023-12-28T11:05:12;100258.13;;;5.10;79.97
19594;BME280;9944;48.240;16.478;2023-12-28T11:09:18;100252.81;;;5.07;79.24
19594;BME280;9944;48.240;16.478;2023-12-28T11:13:23;100241.53;;;5.08;78.99
19594;BME280;9944;48.240;16.478;2023-12-28T11:17:28;100228.44;;;5.10;79.34
19594;BME280;9944;48.240;16.478;2023-12-28T11:21:33;100232.81;;;5.09;79.06
19594;BME280;9944;48.240;16.478;2023-12-28T11:25:38;100239.09;;;5.16;79.22
19594;BME280;9944;48.240;16.478;2023-12-28T11:29:41;100240.91;;;5.20;79.20
19594;BME280;9944;48.240;16.478;2023-12-28T11:33:45;100240.03;;;5.20;79.00
19594;BME280;9944;48.240;16.478;2023-12-28T11:37:51;100231.41;;;5.24;79.28
19594;BME280;9944;48.240;16.478;2023-12-28T11:42:00;100224.50;;;5.26;79.10
19594;BME280;9944;48.240;16.478;2023-12-28T11:46:07;100219.28;;;5.26;78.75
19594;BME280;9944;48.240;16.478;2023-12-28T11:50:11;100212.22;;;5.23;78.58
19594;BME280;9944;48.240;16.478;2023-12-28T11:54:15;100217.50;;;5.25;78.73
19594;BME280;9944;48.240;16.478;2023-12-28T11:58:19;100200.13;;;5.28;79.01
19594;BME280;9944;48.240;16.478;2023-12-28T12:02:23;100199.28;;;5.29;78.97
19594;BME280;9944;48.240;16.478;2023-12-28T12:06:27;100190.63;;;5.32;78.84
19594;BME280;9944;48.240;16.478;2023-12-28T12:10:30;100193.19;;;5.30;78.62
19594;BME280;9944;48.240;16.478;2023-12-28T12:14:35;100198.38;;;5.29;78.72
19594;BME280;9944;48.240;16.478;2023-12-28T12:18:39;100207.03;;;5.25;78.36
19594;BME280;9944;48.240;16.478;2023-12-28T12:22:42;100203.41;;;5.20;78.53
19594;BME280;9944;48.240;16.478;2023-12-28T12:26:46;100187.63;;;5.16;78.52
19594;BME280;9944;48.240;16.478;2023-12-28T12:30:54;100186.69;;;5.14;78.67
19594;BME280;9944;48.240;16.478;2023-12-28T12:34:58;100175.19;;;5.08;78.27
19594;BME280;9944;48.240;16.478;2023-12-28T12:39:02;100175.09;;;5.03;78.48
19594;BME280;9944;48.240;16.478;2023-12-28T12:43:07;100175.81;;;4.97;78.01
19594;BME280;9944;48.240;16.478;2023-12-28T12:47:14;100180.78;;;4.87;78.01
19594;BME280;9944;48.240;16.478;2023-12-28T12:51:18;100177.28;;;4.86;78.08
19594;BME280;9944;48.240;16.478;2023-12-28T12:55:21;100176.34;;;4.83;78.40
19594;BME280;9944;48.240;16.478;2023-12-28T12:59:27;100174.53;;;4.82;78.48
19594;BME280;9944;48.240;16.478;2023-12-28T13:03:31;100177.06;;;4.78;78.02
19594;BME280;9944;48.240;16.478;2023-12-28T13:07:35;100172.53;;;4.71;78.12
19594;BME280;9944;48.240;16.478;2023-12-28T13:11:38;100176.84;;;4.69;78.19
19594;BME280;9944;48.240;16.478;2023-12-28T13:15:41;100172.31;;;4.62;77.93
19594;BME280;9944;48.240;16.478;2023-12-28T13:19:46;100191.38;;;4.58;78.04
19594;BME280;9944;48.240;16.478;2023-12-28T13:23:50;100189.47;;;4.52;78.02
19594;BME280;9944;48.240;16.478;2023-12-28T13:27:54;100190.97;;;4.43;77.69
19594;BME280;9944;48.240;16.478;2023-12-28T13:31:57;100181.94;;;4.31;77.70
19594;BME280;9944;48.240;16.478;2023-12-28T13:36:02;100178.94;;;4.17;77.54
19594;BME280;9944;48.240;16.478;2023-12-28T13:40:08;100186.66;;;4.13;78.04
19594;BME280;9944;48.240;16.478;2023-12-28T13:44:11;100186.59;;;4.11;78.26
19594;BME280;9944;48.240;16.478;2023-12-28T13:48:15;100182.94;;;4.05;78.21
19594;BME280;9944;48.240;16.478;2023-12-28T13:52:19;100180.16;;;4.00;78.26
19594;BME280;9944;48.240;16.478;2023-12-28T13:56:22;100186.91;;;3.93;78.88
19594;BME280;9944;48.240;16.478;2023-12-28T14:00:26;100193.00;;;3.92;78.81
19594;BME280;9944;48.240;16.478;2023-12-28T14:04:29;100198.81;;;3.83;79.12
19594;BME280;9944;48.240;16.478;2023-12-28T14:08:34;100210.00;;;3.79;79.32
19594;BME280;9944;48.240;16.478;2023-12-28T14:12:37;100201.28;;;3.79;79.53
19594;BME280;9944;48.240;16.478;2023-12-28T14:16:41;100195.19;;;3.78;79.83
19594;BME280;9944;48.240;16.478;2023-12-28T14:20:47;100187.31;;;3.77;79.61
19594;BME280;9944;48.240;16.478;2023-12-28T14:24:54;100188.13;;;3.76;79.87
19594;BME280;9944;48.240;16.478;2023-12-28T14:28:58;100187.41;;;3.80;80.37
19594;BME280;9944;48.240;16.478;2023-12-28T14:33:02;100181.22;;;3.78;80.59
19594;BME280;9944;48.240;16.478;2023-12-28T14:37:05;100184.66;;;3.75;80.50
19594;BME280;9944;48.240;16.478;2023-12-28T14:41:11;100180.34;;;3.77;80.68
19594;BME280;9944;48.240;16.478;2023-12-28T14:45:14;100180.28;;;3.76;80.80
19594;BME280;9944;48.240;16.478;2023-12-28T14:49:18;100172.41;;;3.74;80.67
19594;BME280;9944;48.240;16.478;2023-12-28T14:53:21;100166.31;;;3.74;81.04
19594;BME280;9944;48.240;16.478;2023-12-28T14:57:28;100181.06;;;3.72;80.96
19594;BME280;9944;48.240;16.478;2023-12-28T15:01:31;100190.47;;;3.66;81.00
19594;BME280;9944;48.240;16.478;2023-12-28T15:05:34;100191.41;;;3.69;81.32
19594;BME280;9944;48.240;16.478;2023-12-28T15:09:37;100178.34;;;3.69;81.23
19594;BME280;9944;48.240;16.478;2023-12-28T15:13:43;100171.28;;;3.64;81.33
19594;BME280;9944;48.240;16.478;2023-12-28T15:17:46;100171.34;;;3.68;81.68
19594;BME280;9944;48.240;16.478;2023-12-28T15:21:50;100163.59;;;3.71;81.93
19594;BME280;9944;48.240;16.478;2023-12-28T15:25:54;100162.69;;;3.69;81.68
19594;BME280;9944;48.240;16.478;2023-12-28T15:29:59;100160.13;;;3.70;82.05
19594;BME280;9944;48.240;16.478;2023-12-28T15:34:02;100158.44;;;3.72;82.24
19594;BME280;9944;48.240;16.478;2023-12-28T15:38:05;100159.25;;;3.70;82.14
19594;BME280;9944;48.240;16.478;2023-12-28T15:42:08;100151.25;;;3.65;82.23
19594;BME280;9944;48.240;16.478;2023-12-28T15:46:13;100164.16;;;3.60;82.28
19594;BME280;9944;48.240;16.478;2023-12-28T15:50:16;100154.53;;;3.58;82.47
19594;BME280;9944;48.240;16.478;2023-12-28T15:54:19;100151.13;;;3.60;83.01
19594;BME280;9944;48.240;16.478;2023-12-28T15:58:22;100151.16;;;3.62;83.13
19594;BME280;9944;48.240;16.478;2023-12-28T16:02:28;100145.22;;;3.68;83.44
19594;BME280;9944;48.240;16.478;2023-12-28T16:06:31;100147.94;;;3.71;83.54
19594;BME280;9944;48.240;16.478;2023-12-28T16:10:35;100147.22;;;3.75;83.41
19594;BME280;9944;48.240;16.478;2023-12-28T16:14:38;100144.59;;;3.75;83.58
19594;BME280;9944;48.240;16.478;2023-12-28T16:18:44;100142.06;;;3.78;83.53
19594;BME280;9944;48.240;16.478;2023-12-28T16:22:48;100144.59;;;3.75;83.42
19594;BME280;9944;48.240;16.478;2023-12-28T16:26:52;100147.22;;;3.75;83.49
19594;BME280;9944;48.240;16.478;2023-12-28T16:30:55;100150.84;;;3.80;84.02
19594;BME280;9944;48.240;16.478;2023-12-28T16:35:00;100154.34;;;3.80;83.83
19594;BME280;9944;48.240;16.478;2023-12-28T16:39:04;100152.50;;;3.78;83.49
19594;BME280;9944;48.240;16.478;2023-12-28T16:43:08;100147.28;;;3.78;83.40
19594;BME280;9944;48.240;16.478;2023-12-28T16:47:11;100143.75;;;3.76;83.51
19594;BME280;9944;48.240;16.478;2023-12-28T16:51:16;100147.22;;;3.75;83.23
19594;BME280;9944;48.240;16.478;2023-12-28T16:55:20;100135.00;;;3.74;83.42
19594;BME280;9944;48.240;16.478;2023-12-28T16:59:25;100142.72;;;3.71;83.37
19594;BME280;9944;48.240;16.478;2023-12-28T17:03:28;100139.19;;;3.69;83.55
19594;BME280;9944;48.240;16.478;2023-12-28T17:07:38;100150.56;;;3.71;83.61
19594;BME280;9944;48.240;16.478;2023-12-28T17:11:45;100161.09;;;3.74;83.78
19594;BME280;9944;48.240;16.478;2023-12-28T17:15:49;100152.50;;;3.78;83.88
19594;BME280;9944;48.240;16.478;2023-12-28T17:19:55;100154.19;;;3.76;83.43
19594;BME280;9944;48.240;16.478;2023-12-28T17:23:59;100147.03;;;3.69;83.26
19594;BME280;9944;48.240;16.478;2023-12-28T17:28:04;100155.50;;;3.61;83.11
19594;BME280;9944;48.240;16.478;2023-12-28T17:32:10;100159.66;;;3.55;83.03
19594;BME280;9944;48.240;16.478;2023-12-28T17:36:15;100168.97;;;3.46;83.39
19594;BME280;9944;48.240;16.478;2023-12-28T17:40:21;100162.88;;;3.46;83.63
19594;BME280;9944;48.240;16.478;2023-12-28T17:44:26;100161.94;;;3.44;83.66
19594;BME280;9944;48.240;16.478;2023-12-28T17:48:39;100166.31;;;3.45;84.00
19594;BME280;9944;48.240;16.478;2023-12-28T17:52:43;100165.31;;;3.41;83.75
19594;BME280;9944;48.240;16.478;2023-12-28T17:56:50;100160.81;;;3.36;83.45
19594;BME280;9944;48.240;16.478;2023-12-28T18:00:53;100152.81;;;3.30;83.34
19594;BME280;9944;48.240;16.478;2023-12-28T18:04:57;100153.53;;;3.25;83.50
19594;BME280;9944;48.240;16.478;2023-12-28T18:09:00;100162.06;;;3.20;83.66
19594;BME280;9944;48.240;16.478;2023-12-28T18:13:06;100161.06;;;3.16;83.89
19594;BME280;9944;48.240;16.478;2023-12-28T18:17:10;100152.09;;;3.08;83.40
19594;BME280;9944;48.240;16.478;2023-12-28T18:21:14;100167.41;;;2.97;83.27
19594;BME280;9944;48.240;16.478;2023-12-28T18:25:18;100159.28;;;2.88;83.30
19594;BME280;9944;48.240;16.478;2023-12-28T18:29:23;100158.31;;;2.84;83.55
19594;BME280;9944;48.240;16.478;2023-12-28T18:33:26;100164.28;;;2.82;83.66
19594;BME280;9944;48.240;16.478;2023-12-28T18:37:30;100157.97;;;2.75;83.55
19594;BME280;9944;48.240;16.478;2023-12-28T18:41:33;100142.16;;;2.69;83.37
19594;BME280;9944;48.240;16.478;2023-12-28T18:45:37;100138.41;;;2.61;83.38
19594;BME280;9944;48.240;16.478;2023-12-28T18:49:40;100147.84;;;2.57;83.50
19594;BME280;9944;48.240;16.478;2023-12-28T18:53:44;100134.84;;;2.59;83.83
19594;BME280;9944;48.240;16.478;2023-12-28T18:57:48;100146.97;;;2.57;83.80
19594;BME280;9944;48.240;16.478;2023-12-28T19:01:55;100151.25;;;2.56;83.75
19594;BME280;9944;48.240;16.478;2023-12-28T19:05:58;100163.41;;;2.56;83.75
19594;BME280;9944;48.240;16.478;2023-12-28T19:10:03;100156.41;;;2.55;83.63
19594;BME280;9944;48.240;16.478;2023-12-28T19:14:06;100142.50;;;2.54;83.47
19594;BME280;9944;48.240;16.478;2023-12-28T19:18:11;100137.09;;;2.48;83.16
19594;BME280;9944;48.240;16.478;2023-12-28T19:22:18;100130.78;;;2.41;82.92
19594;BME280;9944;48.240;16.478;2023-12-28T19:26:21;100137.44;;;2.33;82.80
19594;BME280;9944;48.240;16.478;2023-12-28T19:30:24;100133.78;;;2.28;82.90
19594;BME280;9944;48.240;16.478;2023-12-28T19:34:29;100130.25;;;2.26;82.94
19594;BME280;9944;48.240;16.478;2023-12-28T19:38:32;100111.91;;;2.23;82.97
19594;BME280;9944;48.240;16.478;2023-12-28T19:42:36;100114.50;;;2.23;83.28
19594;BME280;9944;48.240;16.478;2023-12-28T19:46:39;100123.25;;;2.25;83.39
19594;BME280;9944;48.240;16.478;2023-12-28T19:50:44;100125.00;;;2.24;83.21
19594;BME280;9944;48.240;16.478;2023-12-28T19:54:47;100128.53;;;2.26;83.53
19594;BME280;9944;48.240;16.478;2023-12-28T19:58:50;100116.38;;;2.27;83.63
19594;BME280;9944;48.240;16.478;2023-12-28T20:02:53;100111.84;;;2.21;83.21
19594;BME280;9944;48.240;16.478;2023-12-28T20:06:58;100117.06;;;2.21;83.32
19594;BME280;9944;48.240;16.478;2023-12-28T20:11:02;100107.44;;;2.19;83.26
19594;BME280;9944;48.240;16.478;2023-12-28T20:15:06;100106.47;;;2.17;83.26
19594;BME280;9944;48.240;16.478;2023-12-28T20:19:12;100108.13;;;2.14;83.25
19594;BME280;9944;48.240;16.478;2023-12-28T20:23:17;100115.94;;;2.14;83.31
19594;BME280;9944;48.240;16.478;2023-12-28T20:27:20;100120.34;;;2.15;83.41
19594;BME280;9944;48.240;16.478;2023-12-28T20:31:23;100117.75;;;2.15;83.13
19594;BME280;9944;48.240;16.478;2023-12-28T20:35:27;100115.94;;;2.14;83.08
19594;BME280;9944;48.240;16.478;2023-12-28T20:39:31;100105.53;;;2.14;83.17
19594;BME280;9944;48.240;16.478;2023-12-28T20:43:34;100116.75;;;2.12;82.90
19594;BME280;9944;48.240;16.478;2023-12-28T20:47:38;100126.94;;;2.06;83.05
19594;BME280;9944;48.240;16.478;2023-12-28T20:51:41;100133.03;;;2.06;83.26
19594;BME280;9944;48.240;16.478;2023-12-28T20:55:46;100120.16;;;2.11;83.35
19594;BME280;9944;48.240;16.478;2023-12-28T20:59:49;100117.44;;;2.08;82.76
19594;BME280;9944;48.240;16.478;2023-12-28T21:03:52;100124.13;;;2.00;82.73
19594;BME280;9944;48.240;16.478;2023-12-28T21:07:55;100125.63;;;1.93;82.67
19594;BME280;9944;48.240;16.478;2023-12-28T21:12:00;100127.97;;;1.87;82.71
19594;BME280;9944;48.240;16.478;2023-12-28T21:16:05;100115.88;;;1.87;82.85
19594;BME280;9944;48.240;16.478;2023-12-28T21:20:09;100123.63;;;1.86;83.04
19594;BME280;9944;48.240;16.478;2023-12-28T21:24:13;100124.31;;;1.82;82.80
19594;BME280;9944;48.240;16.478;2023-12-28T21:28:17;100127.66;;;1.77;82.82
19594;BME280;9944;48.240;16.478;2023-12-28T21:32:20;100124.94;;;1.74;82.73